createdAt,value
2023-01-01T00:02:05.268Z,9.05
2023-01-01T00:05:13.931Z,8.97
2023-01-01T00:08:20.163Z,8.94
2023-01-01T00:11:25.556Z,8.94
2023-01-01T00:14:32.213Z,9.01
2023-01-01T00:17:37.853Z,9.03
2023-01-01T00:20:46.874Z,9.04
2023-01-01T00:23:52.427Z,9.04
2023-01-01T00:26:58.753Z,9.07
2023-01-01T00:30:05.101Z,9.10
2023-01-01T00:33:11.371Z,9.13
2023-01-01T00:36:22.437Z,9.15
2023-01-01T00:39:28.867Z,9.12
2023-01-01T00:42:34.286Z,9.15
2023-01-01T00:45:40.603Z,9.14
2023-01-01T00:48:46.195Z,9.14
2023-01-01T00:51:55.327Z,9.20
2023-01-01T00:55:00.779Z,9.28
2023-01-01T00:58:07.282Z,9.35
2023-01-01T01:01:12.917Z,9.43
2023-01-01T01:04:19.252Z,9.51
2023-01-01T01:07:27.383Z,9.60
2023-01-01T01:10:33.592Z,9.67
2023-01-01T01:13:40.393Z,9.76
2023-01-01T01:16:46.783Z,9.78
2023-01-01T01:19:52.148Z,9.79
2023-01-01T01:23:01.175Z,9.79
2023-01-01T01:26:17.547Z,9.79
2023-01-01T01:29:23.796Z,9.74
2023-01-01T01:32:29.274Z,9.72
2023-01-01T01:35:35.975Z,9.70
2023-01-01T01:38:45.553Z,9.65
2023-01-01T01:41:52.093Z,9.60
2023-01-01T01:45:01.847Z,9.63
2023-01-01T01:48:09.005Z,9.58
2023-01-01T01:51:21.057Z,9.54
2023-01-01T01:54:33.366Z,9.49
2023-01-01T01:57:43.440Z,9.56
2023-01-01T02:00:51.351Z,9.51
2023-01-01T02:04:02.270Z,9.54
2023-01-01T02:07:08.977Z,9.56
2023-01-01T02:10:17.430Z,9.52
2023-01-01T02:13:24.277Z,9.50
2023-01-01T02:16:40.886Z,9.48
2023-01-01T02:20:14.998Z,9.53
2023-01-01T02:23:55.863Z,9.52
2023-01-01T02:27:09.961Z,9.57
2023-01-01T02:30:21.280Z,9.56
2023-01-01T02:33:30.918Z,9.57
2023-01-01T02:36:46.950Z,9.52
2023-01-01T02:40:02.289Z,9.51
2023-01-01T02:43:10.044Z,9.42
2023-01-01T02:49:23.134Z,9.27
2023-01-01T02:53:04.783Z,9.23
2023-01-01T02:56:26.237Z,9.22
2023-01-01T03:00:05.877Z,9.16
2023-01-01T03:03:31.839Z,9.12
2023-01-01T03:06:52.632Z,9.12
2023-01-01T03:10:10.674Z,9.04
2023-01-01T03:13:33.486Z,9.03
2023-01-01T03:16:49.628Z,8.87
2023-01-01T03:20:04.385Z,8.85
2023-01-01T03:23:20.742Z,8.90
2023-01-01T03:26:32.118Z,8.89
2023-01-01T03:29:43.889Z,8.92
2023-01-01T03:33:08.088Z,8.92
2023-01-01T03:36:27.833Z,8.88
2023-01-01T03:39:41.259Z,8.86
2023-01-01T03:42:55.344Z,8.92
2023-01-01T03:46:07.672Z,9.03
2023-01-01T03:49:17.248Z,9.07
2023-01-01T03:52:46.628Z,9.13
2023-01-01T03:56:10.167Z,9.15
2023-01-01T03:59:26.942Z,9.24
2023-01-01T04:02:43.340Z,9.26
2023-01-01T04:05:49.529Z,9.31
2023-01-01T04:09:05.921Z,9.36
2023-01-01T04:12:13.459Z,9.43
2023-01-01T04:15:21.280Z,9.48
2023-01-01T04:18:26.677Z,9.56
2023-01-01T04:21:32.924Z,9.61
2023-01-01T04:24:41.143Z,9.65
2023-01-01T04:27:47.634Z,9.70
2023-01-01T04:34:00.986Z,9.70
2023-01-01T04:37:12.757Z,9.73
2023-01-01T04:40:22.428Z,9.70
2023-01-01T04:43:27.810Z,9.75
2023-01-01T04:46:34.034Z,9.74
2023-01-01T04:49:39.591Z,9.76
2023-01-01T04:52:45.858Z,9.81
2023-01-01T04:55:54.053Z,9.79
2023-01-01T04:59:00.249Z,9.82
2023-01-01T05:02:06.524Z,9.83
2023-01-01T05:05:13.039Z,9.80
2023-01-01T05:08:18.381Z,9.81
2023-01-01T05:11:30.813Z,9.74
2023-01-01T05:14:36.979Z,9.74
2023-01-01T05:17:43.185Z,9.70
2023-01-01T05:20:48.708Z,9.57
2023-01-01T05:24:07.631Z,9.53
2023-01-01T05:27:19.850Z,9.61
2023-01-01T05:30:43.033Z,9.65
2023-01-01T05:34:23.250Z,9.64
2023-01-01T05:37:43.310Z,9.71
2023-01-01T05:41:18.128Z,9.76
2023-01-01T05:44:37.866Z,9.77
2023-01-01T05:47:55.111Z,9.77
2023-01-01T05:51:11.126Z,9.74
2023-01-01T05:57:43.700Z,9.77
2023-01-01T06:00:52.428Z,9.80
2023-01-01T06:04:17.239Z,9.83
2023-01-01T06:07:48.005Z,9.84
2023-01-01T06:11:08.368Z,9.82
2023-01-01T06:18:03.147Z,9.73
2023-01-01T06:21:38.068Z,9.63
2023-01-01T06:24:44.292Z,9.65
2023-01-01T06:27:49.666Z,9.69
2023-01-01T06:30:55.899Z,9.70
2023-01-01T06:34:04.507Z,9.67
2023-01-01T06:37:10.736Z,9.62
2023-01-01T06:40:16.127Z,9.60
2023-01-01T06:43:22.348Z,9.53
2023-01-01T06:46:32.735Z,9.50
2023-01-01T06:49:41.779Z,9.45
2023-01-01T06:52:50.633Z,9.41
2023-01-01T06:55:57.683Z,9.43
2023-01-01T06:59:04.022Z,9.50
2023-01-01T07:02:14.679Z,9.56
2023-01-01T07:05:22.996Z,9.55
2023-01-01T07:08:29.270Z,9.55
2023-01-01T07:11:35.364Z,9.58
2023-01-01T07:14:41.613Z,9.59
2023-01-01T07:17:47.801Z,9.57
2023-01-01T07:21:02.743Z,9.55
2023-01-01T07:24:13.374Z,9.51
2023-01-01T07:27:19.611Z,9.45
2023-01-01T07:30:25.141Z,9.36
2023-01-01T07:33:31.778Z,9.21
2023-01-01T07:36:39.913Z,9.21
2023-01-01T07:39:46.110Z,9.21
2023-01-01T07:42:55.956Z,9.11
2023-01-01T07:46:02.689Z,9.14
2023-01-01T07:49:08.897Z,9.19
2023-01-01T07:52:18.526Z,9.19
2023-01-01T07:55:28.027Z,9.15
2023-01-01T07:58:34.736Z,9.11
2023-01-01T08:01:41.328Z,9.12
2023-01-01T08:04:53.705Z,9.07
2023-01-01T08:08:31.659Z,9.08
2023-01-01T08:11:49.602Z,9.08
2023-01-01T08:15:26.974Z,9.13
2023-01-01T08:18:43.559Z,9.18
2023-01-01T08:22:02.894Z,9.21
2023-01-01T08:25:28.354Z,9.30
2023-01-01T08:28:36.913Z,9.30
2023-01-01T08:31:44.959Z,9.32
2023-01-01T08:34:51.866Z,9.24
2023-01-01T08:37:58.494Z,9.18
2023-01-01T08:41:06.796Z,9.19
2023-01-01T08:44:12.995Z,9.18
2023-01-01T08:47:24.595Z,9.21
2023-01-01T08:51:10.693Z,9.29
2023-01-01T08:54:23.581Z,9.33
2023-01-01T08:57:34.453Z,9.40
2023-01-01T09:00:39.953Z,9.48
2023-01-01T09:03:46.473Z,9.57
2023-01-01T09:06:52.132Z,9.62
2023-01-01T09:09:58.368Z,9.70
2023-01-01T09:13:06.626Z,9.79
2023-01-01T09:16:13.487Z,9.87
2023-01-01T09:19:18.914Z,9.94
2023-01-01T09:22:25.130Z,10.02
2023-01-01T09:25:30.763Z,10.10
2023-01-01T09:28:40.529Z,10.17
2023-01-01T09:31:46.119Z,10.21
2023-01-01T09:34:52.810Z,10.21
2023-01-01T09:37:58.611Z,10.18
2023-01-01T09:41:27.582Z,10.29
2023-01-01T09:45:10.303Z,10.40
2023-01-01T09:48:20.365Z,10.47
2023-01-01T09:51:32.918Z,10.55
2023-01-01T09:54:46.825Z,10.64
2023-01-01T09:57:52.315Z,10.73
2023-01-01T10:01:23.179Z,10.77
2023-01-01T10:04:52.152Z,10.86
2023-01-01T10:08:15.848Z,10.96
2023-01-01T10:11:39.280Z,11.06
2023-01-01T10:14:57.907Z,11.18
2023-01-01T10:18:24.096Z,11.28
2023-01-01T10:21:45.129Z,11.28
2023-01-01T10:25:02.547Z,11.32
2023-01-01T10:28:22.442Z,11.46
2023-01-01T10:31:37.289Z,11.57
2023-01-01T10:34:46.440Z,11.72
2023-01-01T10:37:52.995Z,11.83
2023-01-01T10:41:15.262Z,11.96
2023-01-01T10:44:34.348Z,12.06
2023-01-01T10:47:40.801Z,12.12
2023-01-01T10:50:54.579Z,12.20
2023-01-01T10:54:01.092Z,12.25
2023-01-01T10:57:19.674Z,12.34
2023-01-01T11:00:29.188Z,12.41
2023-01-01T11:03:35.638Z,12.47
2023-01-01T11:06:47.768Z,12.51
2023-01-01T11:10:03.158Z,12.45
2023-01-01T11:13:23.390Z,12.53
2023-01-01T11:16:32.489Z,12.57
2023-01-01T11:19:50.625Z,12.63
2023-01-01T11:23:00.138Z,12.70
2023-01-01T11:26:28.084Z,12.79
2023-01-01T11:29:33.809Z,12.79
2023-01-01T11:32:41.538Z,12.83
2023-01-01T11:35:57.155Z,12.84
2023-01-01T11:39:29.029Z,12.86
2023-01-01T11:42:39.959Z,12.84
2023-01-01T11:45:47.075Z,12.65
2023-01-01T11:48:53.653Z,12.27
2023-01-01T11:52:02.157Z,12.49
2023-01-01T11:55:27.271Z,12.58
2023-01-01T11:58:47.328Z,12.57
2023-01-01T12:02:01.443Z,12.58
2023-01-01T12:05:24.764Z,12.59
2023-01-01T12:08:40.996Z,12.63
2023-01-01T12:11:56.037Z,12.65
2023-01-01T12:15:14.183Z,12.57
2023-01-01T12:18:31.828Z,12.50
2023-01-01T12:21:50.783Z,12.37
2023-01-01T12:25:01.232Z,12.48
2023-01-01T12:28:32.225Z,12.51
2023-01-01T12:31:55.297Z,12.54
2023-01-01T12:35:19.479Z,12.50
2023-01-01T12:38:56.416Z,12.46
2023-01-01T12:42:20.085Z,12.45
2023-01-01T12:46:15.715Z,12.44
2023-01-01T12:49:50.066Z,12.41
2023-01-01T12:53:20.582Z,12.34
2023-01-01T12:56:38.718Z,12.39
2023-01-01T12:59:53.661Z,12.37
2023-01-01T13:03:10.087Z,12.36
2023-01-01T13:06:28.142Z,12.36
2023-01-01T13:09:40.949Z,12.34
2023-01-01T13:12:48.425Z,12.42
2023-01-01T13:15:58.680Z,12.43
2023-01-01T13:19:08.985Z,12.24
2023-01-01T13:22:45.491Z,12.35
2023-01-01T13:25:51.794Z,12.33
2023-01-01T13:29:37.711Z,12.31
2023-01-01T13:33:26.218Z,12.27
2023-01-01T13:36:37.918Z,12.33
2023-01-01T13:40:00.212Z,12.17
2023-01-01T13:43:23.552Z,12.11
2023-01-01T13:46:52.155Z,12.12
2023-01-01T13:50:16.152Z,12.12
2023-01-01T13:54:15.120Z,12.10
2023-01-01T13:58:02.548Z,12.02
2023-01-01T14:01:48.988Z,12.03
2023-01-01T14:05:02.604Z,12.00
2023-01-01T14:08:13.210Z,12.01
2023-01-01T14:11:29.480Z,11.84
2023-01-01T14:14:36.495Z,11.78
2023-01-01T14:17:46.114Z,11.83
2023-01-01T14:20:56.619Z,11.81
2023-01-01T14:24:07.763Z,11.74
2023-01-01T14:27:24.906Z,11.71
2023-01-01T14:30:36.237Z,11.63
2023-01-01T14:33:42.965Z,11.62
2023-01-01T14:36:57.411Z,11.48
2023-01-01T14:40:26.937Z,11.54
2023-01-01T14:43:39.445Z,11.52
2023-01-01T14:46:51.136Z,11.43
2023-01-01T14:50:03.649Z,11.37
2023-01-01T14:53:21.362Z,11.33
2023-01-01T14:56:33.808Z,11.28
2023-01-01T14:59:54.653Z,11.17
2023-01-01T15:03:10.570Z,11.12
2023-01-01T15:06:20.976Z,10.99
2023-01-01T15:09:27.186Z,10.99
2023-01-01T15:12:39.401Z,10.91
2023-01-01T15:15:50.996Z,10.86
2023-01-01T15:18:58.181Z,10.88
2023-01-01T15:22:04.168Z,10.74
2023-01-01T15:25:19.003Z,10.70
2023-01-01T15:28:25.165Z,10.65
2023-01-01T15:31:49.738Z,10.53
2023-01-01T15:34:58.548Z,10.38
2023-01-01T15:38:14.978Z,10.43
2023-01-01T15:41:29.303Z,10.44
2023-01-01T15:44:38.261Z,10.45
2023-01-01T15:47:47.969Z,10.37
2023-01-01T15:51:18.212Z,10.39
2023-01-01T15:54:23.948Z,10.42
2023-01-01T15:57:31.678Z,10.28
2023-01-01T16:00:46.823Z,10.50
2023-01-01T16:04:10.284Z,10.52
2023-01-01T16:07:23.576Z,10.51
2023-01-01T16:10:30.442Z,10.53
2023-01-01T16:13:35.933Z,10.52
2023-01-01T16:16:49.689Z,10.53
2023-01-01T16:19:57.892Z,10.52
2023-01-01T16:23:04.210Z,10.51
2023-01-01T16:26:09.676Z,10.51
2023-01-01T16:29:16.260Z,10.50
2023-01-01T16:32:22.180Z,10.53
2023-01-01T16:35:31.152Z,10.54
2023-01-01T16:38:36.524Z,10.55
2023-01-01T16:41:45.340Z,10.54
2023-01-01T16:44:51.168Z,10.53
2023-01-01T16:47:57.906Z,10.52
2023-01-01T16:51:06.321Z,10.44
2023-01-01T16:54:13.305Z,10.41
2023-01-01T16:57:18.730Z,10.31
2023-01-01T17:00:25.146Z,10.25
2023-01-01T17:03:30.827Z,10.26
2023-01-01T17:06:41.332Z,10.25
2023-01-01T17:09:46.720Z,10.22
2023-01-01T17:12:52.919Z,10.19
2023-01-01T17:15:59.908Z,10.19
2023-01-01T17:19:17.645Z,10.16
2023-01-01T17:22:33.904Z,10.06
2023-01-01T17:25:40.742Z,9.94
2023-01-01T17:28:47.885Z,9.89
2023-01-01T17:31:55.479Z,9.86
2023-01-01T17:35:00.861Z,9.89
2023-01-01T17:38:09.874Z,9.85
2023-01-01T17:41:18.565Z,9.78
2023-01-01T17:44:25.181Z,9.74
2023-01-01T17:47:33.880Z,9.66
2023-01-01T17:50:40.101Z,9.59
2023-01-01T17:53:51.593Z,9.52
2023-01-01T17:57:03.730Z,9.43
2023-01-01T18:00:11.175Z,9.38
2023-01-01T18:03:23.641Z,9.36
2023-01-01T18:06:30.801Z,9.36
2023-01-01T18:09:40.675Z,9.28
2023-01-01T18:12:46.215Z,9.27
2023-01-01T18:15:52.549Z,9.18
2023-01-01T18:19:01.205Z,9.12
2023-01-01T18:22:07.787Z,9.12
2023-01-01T18:25:19.883Z,9.10
2023-01-01T18:28:26.249Z,9.06
2023-01-01T18:31:34.605Z,9.01
2023-01-01T18:34:40.934Z,8.96
2023-01-01T18:37:49.581Z,8.85
2023-01-01T18:41:22.351Z,8.85
2023-01-01T18:44:31.202Z,8.81
2023-01-01T18:47:37.882Z,8.67
2023-01-01T18:50:43.302Z,8.56
2023-01-01T18:53:49.599Z,8.49
2023-01-01T18:57:13.563Z,8.50
2023-01-01T19:00:26.201Z,8.49
2023-01-01T19:03:37.495Z,8.36
2023-01-01T19:06:47.077Z,8.36
2023-01-01T19:09:58.765Z,8.33
2023-01-01T19:13:20.824Z,8.25
2023-01-01T19:16:33.355Z,8.21
2023-01-01T19:19:44.827Z,8.22
2023-01-01T19:22:50.783Z,8.19
2023-01-01T19:26:06.940Z,8.04
2023-01-01T19:29:20.679Z,7.99
2023-01-01T19:32:27.037Z,7.96
2023-01-01T19:35:32.410Z,7.84
2023-01-01T19:38:39.802Z,7.78
2023-01-01T19:41:45.550Z,7.62
2023-01-01T19:44:54.908Z,7.63
2023-01-01T19:48:00.311Z,7.58
2023-01-01T19:51:07.029Z,7.48
2023-01-01T19:54:12.379Z,7.48
2023-01-01T19:57:19.050Z,7.50
2023-01-01T20:00:28.224Z,7.48
2023-01-01T20:06:59.929Z,7.44
2023-01-01T20:10:06.396Z,7.45
2023-01-01T20:13:12.470Z,7.42
2023-01-01T20:16:21.526Z,7.38
2023-01-01T20:19:27.695Z,7.42
2023-01-01T20:22:34.046Z,7.36
2023-01-01T20:25:39.477Z,7.36
2023-01-01T20:29:01.657Z,7.35
2023-01-01T20:32:13.505Z,7.10
2023-01-01T20:35:39.880Z,7.32
2023-01-01T20:38:42.523Z,7.33
2023-01-01T20:41:49.787Z,7.34
2023-01-01T20:44:55.396Z,7.33
2023-01-01T20:48:04.465Z,7.31
2023-01-01T20:51:09.991Z,7.31
2023-01-01T20:54:16.479Z,7.29
2023-01-01T20:57:21.978Z,7.27
2023-01-01T21:00:28.134Z,7.30
2023-01-01T21:03:36.757Z,7.30
2023-01-01T21:06:42.979Z,7.35
2023-01-01T21:09:48.347Z,7.41
2023-01-01T21:12:54.585Z,7.37
2023-01-01T21:16:20.864Z,7.33
2023-01-01T21:19:31.689Z,7.36
2023-01-01T21:22:37.818Z,7.34
2023-01-01T21:25:52.528Z,7.32
2023-01-01T21:28:58.399Z,7.28
2023-01-01T21:32:24.294Z,7.27
2023-01-01T21:35:38.341Z,7.22
2023-01-01T21:38:44.911Z,7.24
2023-01-01T21:41:50.365Z,7.24
2023-01-01T21:45:00.953Z,7.25
2023-01-01T21:48:19.266Z,7.19
2023-01-01T21:51:30.803Z,7.21
2023-01-01T21:54:40.730Z,7.12
2023-01-01T21:57:47.294Z,7.12
2023-01-01T22:00:52.699Z,7.10
2023-01-01T22:04:04.768Z,7.10
2023-01-01T22:10:54.837Z,6.95
2023-01-01T22:14:00.407Z,6.87
2023-01-01T22:17:20.007Z,6.91
2023-01-01T22:20:28.459Z,6.95
2023-01-01T22:23:44.771Z,6.95
2023-01-01T22:26:50.320Z,6.98
2023-01-01T22:29:58.725Z,6.80
2023-01-01T22:33:04.273Z,7.04
2023-01-01T22:36:18.731Z,7.06
2023-01-01T22:39:33.471Z,7.08
2023-01-01T22:42:42.302Z,7.01
2023-01-01T22:45:51.663Z,6.96
2023-01-01T22:49:04.059Z,6.99
2023-01-01T22:52:09.432Z,7.00
2023-01-01T22:55:19.661Z,7.01
2023-01-01T22:58:25.129Z,6.99
2023-01-01T23:01:32.277Z,6.97
2023-01-01T23:04:38.122Z,7.00
2023-01-01T23:07:45.436Z,7.01
2023-01-01T23:10:53.885Z,6.92
2023-01-01T23:14:17.732Z,6.91
2023-01-01T23:17:23.129Z,6.93
2023-01-01T23:20:29.856Z,6.93
2023-01-01T23:23:36.277Z,6.91
2023-01-01T23:26:46.923Z,6.88
2023-01-01T23:29:57.418Z,6.89
2023-01-01T23:33:04.023Z,6.88
2023-01-01T23:36:12.523Z,6.80
2023-01-01T23:39:18.788Z,6.75
2023-01-01T23:42:28.310Z,6.73
2023-01-01T23:45:35.159Z,6.65
2023-01-01T23:48:40.925Z,6.58
2023-01-01T23:51:47.534Z,6.63
2023-01-01T23:54:52.946Z,6.65
2023-01-01T23:58:02.116Z,6.64
